FBSK/GBE METAR and TAF weather

Enter ICAO airport designator
Station Type Date Time Source
FBSK METAR 2021/09/16 10:00 UTC NOAA

FBSK 161000Z VRB05KT CAVOK 31/M07 Q1015 NOSIG


Station Type Date Time Source
FBSK Decoded METAR 2021/09/16 10:00 UTC NOAA

Seretse Khama International Airport, Botswana (FBSK) 24-13S 025-55E 1005M
Sep 16, 2021 - 06:00 AM EDT / 2021.09.16 1000 UTC
Wind: Variable at 6 MPH (5 KT):0
Visibility: greater than 7 mile(s):0
Temperature: 87 F (31 C)
Dew Point: 19 F (-7 C)
Relative Humidity: 8%
Pressure (altimeter): 29.97 in. Hg (1015 hPa)
ob: FBSK 161000Z VRB05KT CAVOK 31/M07 Q1015 NOSIG
cycle: 10

Station Type Date Time Source
FBSK TAF 2021/09/16 12:12 UTC NOAA

TAF TAF FBSK 161000Z 1612/1718 22010KT CAVOK

Example: see airport list